Time;durP1;ratioP1;P1;durP2;ratioP2;P2;SDS_P1;SDS_P2;PMS_P1;PMS_P2;Temp;Humidity;BMP_temperature;BMP_pressure;BME280_temperature;BME280_humidity;BME280_pressure;Samples;Min_cycle;Max_cycle;Signal;HPM_P1;HPM_P2
2022/04/26 03:37:23;;;;;;;10.20;6.60;;;10.10;64.30;;;;;;5071377;28;20398;-66
2022/04/26 03:39:49;;;;;;;11.00;7.35;;;10.10;64.30;;;;;;5073763;28;20024;-66
2022/04/26 03:42:15;;;;;;;11.77;7.65;;;10.10;64.50;;;;;;5069305;28;20049;-66
2022/04/26 03:44:42;;;;;;;10.65;7.25;;;10.10;64.80;;;;;;5074273;28;20040;-66
2022/04/26 03:47:09;;;;;;;11.05;7.75;;;10.00;65.00;;;;;;5070510;28;20032;-67
2022/04/26 03:49:35;;;;;;;12.55;6.88;;;10.00;65.10;;;;;;5070925;28;20094;-66
2022/04/26 03:52:01;;;;;;;12.57;7.25;;;10.00;64.90;;;;;;5070864;28;20372;-66
2022/04/26 03:54:26;;;;;;;11.23;7.60;;;10.00;64.80;;;;;;5069443;28;20078;-66
2022/04/26 03:56:52;;;;;;;10.80;7.30;;;9.90;64.70;;;;;;5070384;28;20027;-66
2022/04/26 03:59:21;;;;;;;10.85;7.85;;;9.90;64.80;;;;;;5071254;28;20051;-66
2022/04/26 04:01:47;;;;;;;11.23;7.22;;;9.90;64.80;;;;;;5067632;28;20044;-66
2022/04/26 04:04:14;;;;;;;11.38;7.18;;;9.90;63.90;;;;;;5071288;28;20507;-66
2022/04/26 04:06:40;;;;;;;9.10;6.70;;;9.90;64.70;;;;;;5064796;28;20029;-65
2022/04/26 04:09:06;;;;;;;8.40;6.43;;;9.80;64.80;;;;;;5068100;28;20119;-66
2022/04/26 04:11:32;;;;;;;10.38;6.03;;;9.80;64.60;;;;;;5069838;28;20033;-66
2022/04/26 04:13:58;;;;;;;8.05;6.07;;;9.70;65.40;;;;;;5069879;28;20032;-66
2022/04/26 04:16:24;;;;;;;12.40;7.10;;;9.70;65.50;;;;;;5069583;28;20036;-66
2022/04/26 04:21:36;;;;;;;11.32;7.85;;;9.70;65.30;;;;;;5069082;28;20040;-66
2022/04/26 04:24:03;;;;;;;12.40;7.60;;;9.70;65.30;;;;;;5069795;28;20043;-66
2022/04/26 04:26:29;;;;;;;18.73;7.38;;;9.70;65.40;;;;;;5068880;28;20047;-66
2022/04/26 04:28:55;;;;;;;12.77;7.00;;;9.60;64.00;;;;;;5068553;28;20032;-66
2022/04/26 04:31:21;;;;;;;9.68;7.47;;;9.60;64.80;;;;;;5073816;28;20402;-66
2022/04/26 04:33:47;;;;;;;11.20;7.40;;;9.60;64.80;;;;;;5070513;28;20051;-66
2022/04/26 04:36:12;;;;;;;12.40;7.90;;;9.60;65.00;;;;;;5069854;28;20403;-66
2022/04/26 04:38:38;;;;;;;10.02;7.40;;;9.50;65.30;;;;;;5062866;28;20025;-68
2022/04/26 04:41:08;;;;;;;12.68;7.82;;;9.50;65.50;;;;;;5069204;28;20025;-68
2022/04/26 04:43:34;;;;;;;11.13;7.25;;;9.50;65.50;;;;;;5069731;28;20040;-68
2022/04/26 04:46:00;;;;;;;13.38;8.82;;;9.50;65.50;;;;;;5070787;28;20035;-68
2022/04/26 04:48:26;;;;;;;12.15;8.10;;;9.50;65.60;;;;;;5070908;28;20059;-68
2022/04/26 04:50:53;;;;;;;15.70;8.13;;;9.40;65.60;;;;;;5071918;28;20051;-68
2022/04/26 04:53:20;;;;;;;13.40;8.25;;;9.40;65.60;;;;;;5077305;28;20032;-68
2022/04/26 04:55:46;;;;;;;12.82;8.15;;;9.40;65.50;;;;;;5071141;28;20029;-68
2022/04/26 04:58:12;;;;;;;13.48;8.05;;;9.40;65.40;;;;;;5068688;28;20135;-67
2022/04/26 05:00:38;;;;;;;10.73;7.90;;;9.40;65.40;;;;;;5068229;28;20107;-68
2022/04/26 05:03:04;;;;;;;9.82;7.05;;;9.40;65.50;;;;;;5069748;28;20035;-69
2022/04/26 05:05:29;;;;;;;10.68;6.72;;;9.40;65.80;;;;;;5066804;28;20107;-68
2022/04/26 05:07:56;;;;;;;11.43;7.55;;;9.30;65.90;;;;;;5067318;28;20123;-68
2022/04/26 05:10:21;;;;;;;10.75;7.40;;;9.40;65.90;;;;;;5069054;28;20078;-67
2022/04/26 05:12:48;;;;;;;10.30;7.50;;;9.40;65.90;;;;;;5068015;28;20029;-67
2022/04/26 05:15:14;;;;;;;12.30;7.40;;;9.30;65.80;;;;;;5068566;28;20036;-68
2022/04/26 05:17:39;;;;;;;11.00;7.35;;;9.30;64.70;;;;;;5064614;28;20549;-69
2022/04/26 05:20:06;;;;;;;10.00;7.38;;;9.20;65.40;;;;;;5065688;28;20479;-68
2022/04/26 05:24:53;;;;;;;11.75;7.13;;;9.30;65.20;;;;;;5063265;28;20032;-70
2022/04/26 05:25:17;;;;;;;11.73;7.47;;;9.30;65.10;;;;;;5069586;28;20058;-69
2022/04/26 05:27:43;;;;;;;13.43;7.43;;;9.30;64.40;;;;;;5066140;28;20369;-69
2022/04/26 05:30:09;;;;;;;13.35;7.93;;;9.30;65.20;;;;;;5066104;28;20032;-69
2022/04/26 05:32:35;;;;;;;12.90;7.88;;;9.30;65.30;;;;;;5060299;28;20033;-67
2022/04/26 05:35:02;;;;;;;12.25;7.65;;;9.30;65.30;;;;;;5071978;28;20395;-69
2022/04/26 05:37:31;;;;;;;11.43;7.40;;;9.40;65.40;;;;;;5069926;28;20029;-68
2022/04/26 05:40:03;;;;;;;12.30;7.68;;;9.40;65.50;;;;;;5066012;28;20025;-67
2022/04/26 05:42:35;;;;;;;13.02;8.55;;;9.50;65.60;;;;;;5068380;28;20515;-68
2022/04/26 05:45:00;;;;;;;13.65;7.95;;;9.50;65.60;;;;;;5067825;28;20499;-67
2022/04/26 05:47:26;;;;;;;13.48;7.97;;;9.80;64.90;;;;;;5066943;28;20020;-68
2022/04/26 05:49:52;;;;;;;11.48;8.05;;;9.70;65.70;;;;;;5067922;28;20036;-67
2022/04/26 05:52:18;;;;;;;11.07;8.40;;;9.90;65.80;;;;;;5068448;28;20028;-68
2022/04/26 05:54:44;;;;;;;12.98;8.07;;;10.00;65.90;;;;;;5068471;28;20036;-68
2022/04/26 05:57:10;;;;;;;10.45;7.53;;;10.10;65.80;;;;;;5067940;28;20101;-68
2022/04/26 05:59:35;;;;;;;12.95;7.53;;;10.20;65.70;;;;;;5068294;28;20024;-68
2022/04/26 06:02:01;;;;;;;11.43;7.88;;;10.40;65.50;;;;;;5068406;28;20025;-68
2022/04/26 06:04:27;;;;;;;10.50;7.47;;;10.50;65.20;;;;;;5067920;28;20039;-68
2022/04/26 06:06:53;;;;;;;13.05;8.13;;;10.80;65.00;;;;;;5067914;28;20078;-67
2022/04/26 06:09:19;;;;;;;15.50;8.85;;;10.90;64.70;;;;;;5067631;28;20085;-68
2022/04/26 06:11:46;;;;;;;13.45;9.13;;;11.20;64.10;;;;;;5067852;28;20055;-68
2022/04/26 06:14:11;;;;;;;10.52;7.55;;;11.70;60.90;;;;;;5068148;28;20053;-67
2022/04/26 06:16:37;;;;;;;11.63;7.95;;;11.80;61.80;;;;;;5069469;28;20075;-68
2022/04/26 06:19:03;;;;;;;13.93;8.73;;;12.20;60.30;;;;;;5067996;28;20024;-68
2022/04/26 06:21:29;;;;;;;13.10;8.82;;;12.70;58.80;;;;;;5067711;28;20032;-68
2022/04/26 06:23:55;;;;;;;14.65;9.95;;;13.20;57.30;;;;;;5067311;28;20032;-68
2022/04/26 06:26:22;;;;;;;17.33;11.35;;;13.70;55.80;;;;;;5067650;28;20447;-68
2022/04/26 06:28:47;;;;;;;19.40;11.68;;;14.20;55.30;;;;;;5067581;28;20475;-68
2022/04/26 06:31:13;;;;;;;21.08;11.65;;;14.80;55.30;;;;;;5067308;28;20083;-68
2022/04/26 06:33:39;;;;;;;20.50;12.35;;;15.20;54.40;;;;;;5067732;28;20039;-68
2022/04/26 06:36:05;;;;;;;20.50;11.88;;;15.60;53.30;;;;;;5067887;28;20393;-68
2022/04/26 06:38:30;;;;;;;20.33;12.05;;;16.10;52.10;;;;;;5068162;28;20479;-69
2022/04/26 06:40:56;;;;;;;17.10;10.88;;;16.50;51.10;;;;;;5068271;28;20063;-68
2022/04/26 06:43:22;;;;;;;20.60;13.00;;;16.90;50.00;;;;;;5068656;28;20078;-68
2022/04/26 06:45:48;;;;;;;21.67;12.73;;;17.10;49.00;;;;;;5067858;28;20090;-68
2022/04/26 06:48:15;;;;;;;20.65;13.40;;;17.40;48.30;;;;;;5067846;28;20031;-67
2022/04/26 06:50:41;;;;;;;19.40;12.55;;;17.80;47.60;;;;;;5067555;28;20024;-68
2022/04/26 06:53:07;;;;;;;22.42;13.80;;;18.10;46.40;;;;;;5067949;28;20032;-68
2022/04/26 06:55:33;;;;;;;23.80;14.05;;;18.20;45.40;;;;;;5068947;28;20089;-68
2022/04/26 06:57:59;;;;;;;22.40;14.35;;;18.00;45.70;;;;;;5067225;28;20055;-68
2022/04/26 07:00:25;;;;;;;24.80;13.88;;;17.90;46.70;;;;;;5066730;28;20376;-68
2022/04/26 07:02:51;;;;;;;23.57;14.73;;;17.70;47.30;;;;;;5067801;28;20032;-68
2022/04/26 07:05:18;;;;;;;21.50;14.73;;;17.50;49.60;;;;;;5067736;28;20282;-68
2022/04/26 07:07:43;;;;;;;19.83;13.70;;;17.20;49.80;;;;;;5069063;28;20033;-68
2022/04/26 07:10:10;;;;;;;22.67;14.15;;;17.00;51.60;;;;;;5067317;28;20103;-68
2022/04/26 07:12:36;;;;;;;21.95;14.55;;;16.70;52.10;;;;;;5067815;28;20043;-67
2022/04/26 07:15:04;;;;;;;21.02;14.15;;;16.70;53.00;;;;;;5067732;28;20032;-68
2022/04/26 07:17:30;;;;;;;21.95;12.77;;;16.70;53.90;;;;;;5067968;28;20033;-68
2022/04/26 07:19:58;;;;;;;25.40;14.88;;;16.80;53.30;;;;;;5068225;28;20027;-68
2022/04/26 07:22:24;;;;;;;23.48;14.35;;;16.90;53.20;;;;;;5068795;28;20108;-68
2022/04/26 07:24:51;;;;;;;22.58;15.00;;;17.00;53.40;;;;;;5067425;28;20070;-68
2022/04/26 07:27:18;;;;;;;23.48;14.80;;;17.10;52.00;;;;;;5067351;28;20066;-68
2022/04/26 07:29:48;;;;;;;26.13;15.20;;;17.10;52.30;;;;;;5067949;28;20032;-68
2022/04/26 07:32:14;;;;;;;28.42;15.35;;;17.10;52.40;;;;;;5067742;28;20028;-67
2022/04/26 07:34:40;;;;;;;22.25;14.95;;;17.30;52.10;;;;;;5068929;28;20039;-68
2022/04/26 07:37:06;;;;;;;22.88;14.73;;;17.40;51.40;;;;;;5067559;28;20024;-67
2022/04/26 07:39:33;;;;;;;20.25;14.15;;;17.60;50.60;;;;;;5066799;28;20040;-67
2022/04/26 07:42:01;;;;;;;22.15;13.98;;;17.70;50.50;;;;;;5067397;28;20077;-67
2022/04/26 07:44:27;;;;;;;22.60;14.65;;;17.90;50.50;;;;;;5067357;28;20056;-67
2022/04/26 07:46:54;;;;;;;21.92;14.00;;;18.00;49.60;;;;;;5068115;28;20025;-67
2022/04/26 07:49:23;;;;;;;23.60;14.43;;;18.20;48.90;;;;;;5068227;28;20024;-68
2022/04/26 07:51:50;;;;;;;21.98;13.75;;;18.30;48.00;;;;;;5067233;28;20025;-67
2022/04/26 07:54:16;;;;;;;20.25;13.95;;;18.50;46.70;;;;;;5066904;28;20494;-67
2022/04/26 07:56:43;;;;;;;20.25;13.65;;;18.40;47.40;;;;;;5067105;28;20063;-67
2022/04/26 07:59:09;;;;;;;18.15;11.85;;;18.60;47.70;;;;;;5067448;28;20449;-68
2022/04/26 08:01:35;;;;;;;16.42;12.20;;;18.70;45.30;;;;;;5068417;28;20025;-67
2022/04/26 08:04:01;;;;;;;17.98;11.20;;;18.60;46.10;;;;;;5070164;28;20037;-67
2022/04/26 08:06:28;;;;;;;16.15;10.95;;;18.80;46.30;;;;;;5070564;28;20450;-67
2022/04/26 08:08:55;;;;;;;18.27;10.60;;;18.90;45.10;;;;;;5070695;28;20032;-67
2022/04/26 08:11:23;;;;;;;16.42;9.13;;;19.40;44.30;;;;;;5055062;28;20025;-67
2022/04/26 08:13:49;;;;;;;16.50;10.93;;;20.00;42.70;;;;;;5068108;28;20031;-67
2022/04/26 08:16:15;;;;;;;16.20;10.10;;;21.10;40.80;;;;;;5070575;28;20044;-67
2022/04/26 08:18:41;;;;;;;16.05;9.77;;;22.20;38.30;;;;;;5070574;28;20029;-67
2022/04/26 08:21:07;;;;;;;15.45;9.50;;;23.40;35.10;;;;;;5070007;28;20082;-68
2022/04/26 08:27:22;;;;;;;15.55;9.25;;;24.40;32.60;;;;;;5070552;28;20073;-67
2022/04/26 08:29:07;;;;;;;14.70;8.30;;;26.20;28.20;;;;;;5070344;28;20082;-67
2022/04/26 08:31:37;;;;;;;14.10;8.38;;;27.20;26.40;;;;;;5071437;28;20446;-67
2022/04/26 08:34:03;;;;;;;15.02;9.18;;;27.10;27.00;;;;;;5070122;28;20028;-67
2022/04/26 08:36:29;;;;;;;18.58;9.20;;;27.30;26.20;;;;;;5069941;28;20111;-67
2022/04/26 08:38:55;;;;;;;16.13;8.50;;;27.50;25.60;;;;;;5069704;28;20469;-67
2022/04/26 08:41:22;;;;;;;13.23;8.23;;;27.70;24.80;;;;;;5070305;28;20035;-68
2022/04/26 08:43:48;;;;;;;11.48;8.25;;;27.60;25.40;;;;;;5067217;28;20509;-68
2022/04/26 08:46:13;;;;;;;14.77;8.48;;;27.90;24.90;;;;;;5070019;28;20083;-67
2022/04/26 08:51:23;;;;;;;14.45;8.38;;;27.70;25.30;;;;;;5070018;28;20047;-67
2022/04/26 08:53:49;;;;;;;13.00;8.90;;;27.80;25.50;;;;;;5070050;28;20024;-68
